Latest Weather Observations for Inner Beacon

IDQ60901

Issued at 12:41 am EST Monday 25 July 2016 (issued every 10 minutes, with the page automatically refreshed every 10 minutes)

About weather observations | Map of Brisbane area stations | Latest observations for Brisbane area | Other Formats
Station Details ID: 040926 Name: INNER RECIPROCAL MARKER Lat: -27.26 Lon: 153.24 Height: 20.0 m
Data from the previous 72 hours. | See also: Recent months for locations in Queensland
Date/Time
EST
Temp
°C
App
Temp
°C
Dew
Point
°C
Rel
Hum
%
Delta-T
°C
Wind Press
QNH
hPa
Press
MSL
hPa
Rain since
9am
mm
Dir  Spd
km/h
Gust
km/h
Spd
kts
Gust
kts
25/12:30am - - - - - W 9 13 5 7 - - -
25/12:00am - - - - - NW 9 11 5 6 - - -
 
Date/Time
EST
Temp
°C
App
Temp
°C
Dew
Point
°C
Rel
Hum
%
Delta-T
°C
Wind Press
QNH
hPa
Press
MSL
hPa
Rain since
9am
mm
Dir  Spd
km/h
Gust
km/h
Spd
kts
Gust
kts
24/11:30pm - - - - - NW 9 9 5 5 - - -
24/11:00pm - - - - - W 11 13 6 7 - - -
24/10:30pm - - - - - WNW 13 15 7 8 - - -
24/10:00pm - - - - - NNW 13 15 7 8 - - -
24/09:30pm - - - - - NNW 9 11 5 6 - - -
24/09:00pm - - - - - NNW 7 11 4 6 - - -
24/08:30pm - - - - - N 9 9 5 5 - - -
24/08:00pm - - - - - NNW 9 9 5 5 - - -
24/07:30pm - - - - - NW 7 7 4 4 - - -
24/07:00pm - - - - - WNW 7 7 4 4 - - -
24/06:30pm - - - - - NNW 6 6 3 3 - - -
24/06:00pm - - - - - N 9 9 5 5 - - -
24/05:30pm - - - - - NNE 6 6 3 3 - - -
24/05:00pm - - - - - E 6 7 3 4 - - -
24/04:30pm - - - - - E 6 6 3 3 - - -
24/04:00pm - - - - - ESE 9 9 5 5 - - -
24/03:30pm - - - - - SSE 2 6 1 3 - - -
24/03:00pm - - - - - CALM 0 0 0 0 - - -
24/02:30pm - - - - - CALM 0 2 0 1 - - -
24/02:00pm - - - - - SW 6 7 3 4 - - -
24/01:30pm - - - - - WSW 6 6 3 3 - - -
24/01:00pm - - - - - SW 4 6 2 3 - - -
24/12:30pm - - - - - W 6 7 3 4 - - -
24/12:00pm - - - - - W 6 7 3 4 - - -
24/11:30am - - - - - W 6 7 3 4 - - -
24/11:00am - - - - - WSW 7 9 4 5 - - -
24/10:30am - - - - - WSW 9 9 5 5 - - -
24/10:00am - - - - - WSW 9 11 5 6 - - -
24/09:30am - - - - - W 7 9 4 5 - - -
24/09:00am - - - - - W 7 9 4 5 - - -
24/08:30am - - - - - WSW 7 9 4 5 - - -
24/08:00am - - - - - SW 9 13 5 7 - - -
24/07:30am - - - - - SSW 11 13 6 7 - - -
24/07:00am - - - - - SSW 17 20 9 11 - - -
24/06:30am - - - - - SSW 19 24 10 13 - - -
24/06:00am - - - - - SW 7 13 4 7 - - -
24/05:30am - - - - - SW 15 19 8 10 - - -
24/05:00am - - - - - SSW 26 32 14 17 - - -
24/04:30am - - - - - SW 20 24 11 13 - - -
24/04:00am - - - - - SSW 20 26 11 14 - - -
24/03:30am - - - - - SW 28 33 15 18 - - -
24/03:00am - - - - - WSW 20 24 11 13 - - -
24/02:30am - - - - - WSW 22 26 12 14 - - -
24/02:00am - - - - - W 24 30 13 16 - - -
24/01:30am - - - - - WSW 24 28 13 15 - - -
24/01:00am - - - - - W 26 30 14 16 - - -
24/12:30am - - - - - W 19 24 10 13 - - -
24/12:00am - - - - - W 28 32 15 17 - - -
 
Date/Time
EST
Temp
°C
App
Temp
°C
Dew
Point
°C
Rel
Hum
%
Delta-T
°C
Wind Press
QNH
hPa
Press
MSL
hPa
Rain since
9am
mm
Dir  Spd
km/h
Gust
km/h
Spd
kts
Gust
kts
23/11:30pm - - - - - W 20 22 11 12 - - -
23/11:00pm - - - - - WSW 26 30 14 16 - - -
23/10:30pm - - - - - WSW 33 39 18 21 - - -
23/10:00pm - - - - - SW 30 37 16 20 - - -
23/09:30pm - - - - - SW 28 32 15 17 - - -
23/09:00pm - - - - - SW 24 30 13 16 - - -
23/08:30pm - - - - - WSW 19 22 10 12 - - -
23/08:00pm - - - - - WSW 9 11 5 6 - - -
23/07:30pm - - - - - W 6 7 3 4 - - -
23/07:00pm - - - - - WSW 15 17 8 9 - - -
23/06:30pm - - - - - W 7 15 4 8 - - -
23/06:00pm - - - - - NW 6 7 3 4 - - -
23/05:30pm - - - - - NW 6 9 3 5 - - -
23/05:00pm - - - - - W 17 22 9 12 - - -
23/04:30pm - - - - - W 19 22 10 12 - - -
23/04:00pm - - - - - W 15 19 8 10 - - -
23/03:30pm - - - - - W 24 28 13 15 - - -
23/03:00pm - - - - - W 24 28 13 15 - - -
23/02:30pm - - - - - W 22 28 12 15 - - -
23/02:00pm - - - - - W 26 33 14 18 - - -
23/01:30pm - - - - - W 22 26 12 14 - - -
23/01:00pm - - - - - W 26 33 14 18 - - -
23/12:30pm - - - - - NW 15 22 8 12 - - -
23/12:00pm - - - - - N 24 28 13 15 - - -
23/11:30am - - - - - N 30 37 16 20 - - -
23/11:00am - - - - - N 32 33 17 18 - - -
23/10:30am - - - - - N 30 35 16 19 - - -
23/10:00am - - - - - N 32 35 17 19 - - -
23/09:30am - - - - - NNW 33 35 18 19 - - -
23/09:00am - - - - - NNW 30 33 16 18 - - -
23/08:30am - - - - - NNW 28 32 15 17 - - -
23/08:00am - - - - - NNW 30 32 16 17 - - -
23/07:30am - - - - - NNW 24 26 13 14 - - -
23/07:00am - - - - - NNW 22 24 12 13 - - -
23/06:30am - - - - - NNW 22 26 12 14 - - -
23/06:00am - - - - - NNW 26 32 14 17 - - -
23/05:30am - - - - - NNW 28 30 15 16 - - -
23/05:00am - - - - - NNW 28 30 15 16 - - -
23/04:30am - - - - - NNW 19 20 10 11 - - -
23/04:00am - - - - - N 17 20 9 11 - - -
23/03:30am - - - - - N 19 20 10 11 - - -
23/03:00am - - - - - N 19 22 10 12 - - -
23/02:30am - - - - - N 20 22 11 12 - - -
23/02:00am - - - - - N 20 22 11 12 - - -
23/01:30am - - - - - N 20 22 11 12 - - -
23/01:00am - - - - - N 20 22 11 12 - - -
23/12:30am - - - - - N 22 24 12 13 - - -
23/12:00am - - - - - N 22 24 12 13 - - -
 
Date/Time
EST
Temp
°C
App
Temp
°C
Dew
Point
°C
Rel
Hum
%
Delta-T
°C
Wind Press
QNH
hPa
Press
MSL
hPa
Rain since
9am
mm
Dir  Spd
km/h
Gust
km/h
Spd
kts
Gust
kts
22/11:30pm - - - - - N 22 24 12 13 - - -
22/11:00pm - - - - - N 22 24 12 13 - - -
22/10:30pm - - - - - N 22 22 12 12 - - -
22/10:00pm - - - - - N 24 26 13 14 - - -
22/09:30pm - - - - - N 26 30 14 16 - - -
22/09:00pm - - - - - N 28 30 15 16 - - -
22/08:30pm - - - - - N 26 30 14 16 - - -
22/08:00pm - - - - - N 24 26 13 14 - - -
22/07:30pm - - - - - N 26 30 14 16 - - -
22/07:00pm - - - - - N 28 32 15 17 - - -
22/06:30pm - - - - - N 26 30 14 16 - - -
22/06:00pm - - - - - NNE 24 28 13 15 - - -
22/05:30pm - - - - - NNE 26 28 14 15 - - -
22/05:00pm - - - - - NNE 26 30 14 16 - - -
22/04:30pm - - - - - N 26 30 14 16 - - -
22/04:00pm - - - - - NNE 24 26 13 14 - - -
22/03:30pm - - - - - N 22 24 12 13 - - -
22/03:00pm - - - - - NNE 20 22 11 12 - - -
22/02:30pm - - - - - NNE 19 20 10 11 - - -
22/02:00pm - - - - - NNE 13 13 7 7 - - -
22/01:30pm - - - - - NNE 11 13 6 7 - - -
22/01:00pm - - - - - NE 9 11 5 6 - - -
22/12:30pm - - - - - NNE 7 9 4 5 - - -
22/12:00pm - - - - - NE 9 11 5 6 - - -
22/11:30am - - - - - NE 9 9 5 5 - - -
22/11:00am - - - - - N 7 9 4 5 - - -
22/10:30am - - - - - N 6 7 3 4 - - -
22/10:00am - - - - - NNW 7 7 4 4 - - -
22/09:30am - - - - - NW 9 9 5 5 - - -
22/09:00am - - - - - NNW 7 9 4 5 - - -
22/08:30am - - - - - NW 6 6 3 3 - - -
22/08:00am - - - - - WNW 6 6 3 3 - - -
22/07:30am - - - - - W 7 9 4 5 - - -
22/07:00am - - - - - WSW 7 9 4 5 - - -
22/06:30am - - - - - W 6 7 3 4 - - -
22/06:00am - - - - - W 7 9 4 5 - - -
22/05:30am - - - - - SW 7 9 4 5 - - -
22/05:00am - - - - - WSW 9 9 5 5 - - -
22/04:30am - - - - - SW 11 13 6 7 - - -
22/04:00am - - - - - SSW 11 13 6 7 - - -
22/03:30am - - - - - SW 11 11 6 6 - - -
22/03:00am - - - - - SW 4 6 2 3 - - -
22/02:30am - - - - - CALM 0 4 0 2 - - -
22/02:00am - - - - - E 6 6 3 3 - - -
22/01:30am - - - - - E 11 13 6 7 - - -
22/01:00am - - - - - SE 19 19 10 10 - - -

Latest Capital City Observations: Canberra | Sydney | Melbourne | Brisbane | Adelaide | Perth | Hobart | Darwin

Other Formats:

Comma delimited format used in spreadsheet applications
http://www.bom.gov.au/fwo/IDQ60901/IDQ60901.94590.axf

JavaScript Object Notation format (JSON) in row-major order
http://www.bom.gov.au/fwo/IDQ60901/IDQ60901.94590.json